Torrington, WY

5:04 AM MDT on August 23, 2014 (GMT -0600)
Torrington Municipal | Change Station
CLOSE
Current Station
Airport
Location: Torrington,
Elevation: 4206 ft
Nearby Weather Stations

Elev 4206 ft 42.06 °N, 104.15 °W | Updated 42 minutes ago

Mostly Cloudy
Mostly Cloudy
60 °F
Feels Like 60 °F
N
9
Wind Variable Wind from ESE

Today
High -- | Low -- °F
--% Chance of Precip.
Yesterday
High -- | Low -- °F
Precip. -- in
6:12 AM 7:44 PM
Waning Crescent, 4% visible
Pressure 29.93 in
Visibility 10.0 miles
Clouds Mostly Cloudy 2600 ft
Dew Point 59 °F
Humidity 96%
Rainfall 0.00 in
Snow Depth Not available.
UV 0 out of 12
Pollen 9.30 out of 12
Air Quality Not available.
Flu Activity Not available.
SPECI KTOR 231022Z AUTO 11008KT 10SM BKN026 16/15 A2993 RMK AO2 T01560150

More Conditions Fewer Conditions

Pressure 29.93 in
Visibility 10.0 miles
Clouds Mostly Cloudy 2600 ft
Dew Point 59 °F
Humidity 96%
Rainfall 0.00 in
Snow Depth Not available.
UV 0 out of 12
Pollen 9.30 out of 12
Air Quality Not available.
Flu Activity Not available.
SPECI KTOR 231022Z AUTO 11008KT 10SM BKN026 16/15 A2993 RMK AO2 T01560150

More Conditions Fewer Conditions

10-Day Weather Forecast

Almanac

Astronomy

Aug. 23, 2014 Rise Set
Actual Time 6:12 AM MDT 7:44 PM MDT
Civil Twilight 5:43 AM MDT 8:14 PM MDT
Nautical Twilight 5:07 AM MDT 8:49 PM MDT
Astronomical Twilight 4:29 AM MDT 9:27 PM MDT
Moon 4:30 AM MDT 6:31 PM MDT
Length of Visible Light 14h 30m
Length of Day
13h 32m
Tomorrow will be 2m 38s shorter.
Waning Crescent, 4% of the Moon is Illuminated
Today
Waning Crescent
Aug 25
New
Sep 2
First Quarter
Sep 8
Full
Sep 15
Last Quarter

Today's Extremes

State Highs State Lows

Community

WunderPhotos

Upload Photos

1,746,396 photos uploaded!

WunderBlogs® & News

By Dr. Jeff Masters
Director of Meteorology, Weather Underground
By Kari Strenfel
Meteorologist, Weather Underground
By Christopher C. Burt
Weather Historian, Weather Underground
August 23, 2014
August 23, 2014
August 23, 2014

Nearby

Snow Depth

Station Depth Elevation
Crow Creek 3 in 8330 ft
Reno Hill 0 in 8500 ft
Sand Lake 0 in 10050 ft
Whiskey Park 0 in 8950 ft
Brooklyn Lake 0 in 10220 ft

Earthquake Activity

City Distance Mag. Time & Date
No recent earthquake activity has been reported nearby.
Minimum magnitude displayed is 2.5.

Coastal Water Temperatures

Place Temperature
No Stations Reporting

Nearby Weather Stations